Private Wetterstation Wechselburg
Wetterdaten: Montag, 17.09.2012
Datum Zeit Temp. +2m Bodentemp. Temp.+5cm Temp. Wind Windchill X Diff Temp. Feuchte +2m Feuchte +5cm Sonnenschein Luftdruck Regen Wind Richtung Richtung Sonnenschein UV Taupunkt Windchill Windben
17.09.2012 00:00 9,2 C 21,5 C 10,6 C 9,2 C 9,1 C 0,0 C 87 % 89 % 0 % 1015,0 hPa 0,0 l/m 0,0 km/h (0 Bft) W-SW 247 0 min 0,0 UV-I 7,2 C 9,1 C 0,0 km/h (0 Bft)
17.09.2012 00:05 9,1 C 21,5 C 10,5 C 9,1 C 9,0 C 0,0 C 87 % 89 % 0 % 1015,0 hPa 0,0 l/m 0,0 km/h (0 Bft) W-SW 247 0 min 0,0 UV-I 7,1 C 9,0 C 0,0 km/h (0 Bft)
17.09.2012 00:10 9,0 C 21,5 C 10,5 C 8,9 C 8,8 C 0,0 C 87 % 89 % 0 % 1015,0 hPa 0,0 l/m 0,0 km/h (0 Bft) SW 225 0 min 0,0 UV-I 7,0 C 8,8 C 0,0 km/h (0 Bft)
17.09.2012 00:15 9,1 C 21,5 C 10,4 C 9,0 C 8,9 C 0,0 C 87 % 88 % 0 % 1015,0 hPa 0,0 l/m 0,0 km/h (0 Bft) O-SO 112 0 min 0,0 UV-I 7,1 C 8,9 C 0,0 km/h (0 Bft)
17.09.2012 00:20 9,1 C 21,5 C 10,3 C 9,0 C 8,8 C 0,0 C 87 % 88 % 0 % 1015,0 hPa 0,0 l/m 0,0 km/h (0 Bft) W-SW 247 0 min 0,0 UV-I 7,1 C 8,8 C 0,0 km/h (0 Bft)
17.09.2012 00:25 8,9 C 21,5 C 10,3 C 8,9 C 8,8 C 0,0 C 87 % 88 % 0 % 1015,0 hPa 0,0 l/m 0,0 km/h (0 Bft) SW 225 0 min 0,0 UV-I 6,9 C 8,8 C 0,0 km/h (0 Bft)
17.09.2012 00:30 8,9 C 21,5 C 10,2 C 8,9 C 8,8 C 0,0 C 87 % 88 % 0 % 1015,0 hPa 0,0 l/m 0,0 km/h (0 Bft) W-NW 292 0 min 0,0 UV-I 6,9 C 8,8 C 0,0 km/h (0 Bft)
17.09.2012 00:35 8,9 C 21,5 C 10,2 C 8,8 C 8,7 C 0,0 C 87 % 89 % 0 % 1015,0 hPa 0,0 l/m 0,0 km/h (0 Bft) W-NW 292 0 min 0,0 UV-I 6,9 C 8,7 C 0,0 km/h (0 Bft)
17.09.2012 00:41 8,8 C 21,5 C 10,3 C 8,8 C 8,8 C 0,0 C 88 % 89 % 0 % 1015,1 hPa 0,0 l/m 0,0 km/h (0 Bft) N 0 0 min 0,0 UV-I 6,9 C 8,8 C 0,0 km/h (0 Bft)
17.09.2012 00:55 8,9 C 21,5 C 10,1 C 8,9 C 8,8 C 0,0 C 88 % 89 % 0 % 1015,1 hPa 0,0 l/m 0,0 km/h (0 Bft) W-NW 292 0 min 0,0 UV-I 7,0 C 8,8 C 0,0 km/h (0 Bft)
17.09.2012 01:00 8,8 C 21,4 C 10,0 C 8,8 C 8,8 C 0,0 C 88 % 89 % 0 % 1014,4 hPa 0,0 l/m 0,2 km/h (0 Bft) W-SW 247 0 min 0,0 UV-I 6,9 C 8,8 C 0,0 km/h (0 Bft)
17.09.2012 01:05 8,7 C 21,4 C 10,0 C 8,7 C 8,6 C 0,0 C 88 % 89 % 0 % 1014,4 hPa 0,0 l/m 0,2 km/h (0 Bft) W-SW 247 0 min 0,0 UV-I 6,8 C 8,6 C 0,0 km/h (0 Bft)
17.09.2012 01:10 8,5 C 21,3 C 9,9 C 8,4 C 8,3 C 0,0 C 88 % 89 % 0 % 1014,4 hPa 0,0 l/m 0,0 km/h (0 Bft) W-SW 247 0 min 0,0 UV-I 6,6 C 8,3 C 0,0 km/h (0 Bft)
17.09.2012 01:15 8,4 C 21,3 C 9,9 C 8,4 C 8,3 C 0,0 C 88 % 89 % 0 % 1014,4 hPa 0,0 l/m 0,0 km/h (0 Bft) W 270 0 min 0,0 UV-I 6,5 C 8,3 C 0,0 km/h (0 Bft)
17.09.2012 01:20 8,3 C 21,3 C 9,9 C 8,3 C 8,2 C 0,0 C 88 % 89 % 0 % 1014,9 hPa 0,0 l/m 0,0 km/h (0 Bft) W 270 0 min 0,0 UV-I 6,4 C 8,2 C 0,0 km/h (0 Bft)
17.09.2012 01:25 8,3 C 21,4 C 9,6 C 8,2 C 8,1 C 0,0 C 88 % 89 % 0 % 1014,9 hPa 0,0 l/m 0,0 km/h (0 Bft) W 270 0 min 0,0 UV-I 6,4 C 8,1 C 0,0 km/h (0 Bft)
17.09.2012 01:30 8,3 C 21,3 C 9,7 C 8,2 C 8,0 C 0,0 C 88 % 89 % 0 % 1014,9 hPa 0,0 l/m 0,0 km/h (0 Bft) W 270 0 min 0,0 UV-I 6,4 C 8,0 C 0,0 km/h (0 Bft)
17.09.2012 01:35 8,3 C 21,3 C 9,6 C 8,2 C 8,1 C 0,0 C 88 % 89 % 0 % 1014,9 hPa 0,0 l/m 0,0 km/h (0 Bft) O 90 0 min 0,0 UV-I 6,4 C 8,1 C 0,0 km/h (0 Bft)
17.09.2012 01:40 8,2 C 21,3 C 9,6 C 8,2 C 8,1 C 0,0 C 88 % 89 % 0 % 1014,8 hPa 0,0 l/m 0,0 km/h (0 Bft) O-NO 67 0 min 0,0 UV-I 6,3 C 8,1 C 0,0 km/h (0 Bft)
17.09.2012 01:45 8,3 C 21,4 C 9,6 C 8,3 C 8,2 C 0,0 C 88 % 89 % 0 % 1014,8 hPa 0,0 l/m 0,0 km/h (0 Bft) O-NO 67 0 min 0,0 UV-I 6,4 C 8,2 C 0,0 km/h (0 Bft)
17.09.2012 01:50 8,1 C 21,4 C 9,5 C 8,2 C 8,2 C 0,1 C 89 % 89 % 0 % 1014,8 hPa 0,0 l/m 0,0 km/h (0 Bft) O-NO 67 0 min 0,0 UV-I 6,4 C 8,2 C 0,0 km/h (0 Bft)
17.09.2012 01:55 8,1 C 21,4 C 9,4 C 8,1 C 8,1 C 0,0 C 89 % 90 % 0 % 1014,8 hPa 0,0 l/m 0,0 km/h (0 Bft) O-SO 112 0 min 0,0 UV-I 6,4 C 8,1 C 0,0 km/h (0 Bft)
17.09.2012 02:00 8,0 C 21,4 C 9,5 C 8,0 C 8,0 C 0,0 C 89 % 90 % 0 % 1014,8 hPa 0,0 l/m 0,0 km/h (0 Bft) SO 135 0 min 0,0 UV-I 6,3 C 8,0 C 0,0 km/h (0 Bft)
17.09.2012 02:05 8,0 C 21,4 C 9,5 C 8,0 C 8,0 C 0,0 C 89 % 90 % 0 % 1014,8 hPa 0,0 l/m 0,0 km/h (0 Bft) W-SW 247 0 min 0,0 UV-I 6,3 C 8,0 C 0,0 km/h (0 Bft)
17.09.2012 02:10 7,9 C 21,3 C 9,3 C 7,9 C 7,9 C 0,0 C 89 % 90 % 0 % 1014,8 hPa 0,0 l/m 0,0 km/h (0 Bft) W 270 0 min 0,0 UV-I 6,2 C 7,9 C 0,0 km/h (0 Bft)
17.09.2012 02:15 7,9 C 21,3 C 9,2 C 7,8 C 7,7 C 0,0 C 89 % 90 % 0 % 1014,8 hPa 0,0 l/m 0,0 km/h (0 Bft) W-SW 247 0 min 0,0 UV-I 6,2 C 7,7 C 0,0 km/h (0 Bft)
17.09.2012 02:20 7,7 C 21,2 C 9,2 C 7,7 C 7,6 C 0,0 C 88 % 90 % 0 % 1014,8 hPa 0,0 l/m 0,0 km/h (0 Bft) W 270 0 min 0,0 UV-I 5,8 C 7,6 C 0,0 km/h (0 Bft)
17.09.2012 02:25 7,6 C 21,2 C 9,2 C 7,7 C 7,7 C 0,1 C 88 % 90 % 0 % 1014,8 hPa 0,0 l/m 0,2 km/h (0 Bft) W-SW 247 0 min 0,0 UV-I 5,7 C 7,7 C 1,8 km/h (1 Bft)
17.09.2012 02:30 7,5 C 21,3 C 9,3 C 7,6 C 7,6 C 0,1 C 88 % 90 % 0 % 1014,8 hPa 0,0 l/m 0,2 km/h (0 Bft) W 270 0 min 0,0 UV-I 5,6 C 7,6 C 0,0 km/h (0 Bft)
17.09.2012 02:35 7,4 C 21,3 C 9,0 C 7,5 C 7,5 C 0,1 C 88 % 90 % 0 % 1014,8 hPa 0,0 l/m 0,0 km/h (0 Bft) W 270 0 min 0,0 UV-I 5,5 C 7,5 C 0,0 km/h (0 Bft)
17.09.2012 02:40 7,4 C 21,2 C 9,1 C 7,5 C 7,5 C 0,1 C 88 % 90 % 0 % 1014,7 hPa 0,0 l/m 0,0 km/h (0 Bft) W 270 0 min 0,0 UV-I 5,5 C 7,5 C 0,0 km/h (0 Bft)
17.09.2012 02:45 7,3 C 21,2 C 9,1 C 7,5 C 7,5 C 0,2 C 88 % 90 % 0 % 1014,7 hPa 0,0 l/m 0,0 km/h (0 Bft) SW 225 0 min 0,0 UV-I 5,4 C 7,5 C 0,0 km/h (0 Bft)
17.09.2012 02:50 7,3 C 21,2 C 9,1 C 7,5 C 7,5 C 0,2 C 88 % 90 % 0 % 1014,7 hPa 0,0 l/m 0,0 km/h (0 Bft) SW 225 0 min 0,0 UV-I 5,4 C 7,5 C 0,0 km/h (0 Bft)
17.09.2012 02:55 7,3 C 21,2 C 9,0 C 7,5 C 7,5 C 0,2 C 88 % 90 % 0 % 1014,7 hPa 0,0 l/m 0,0 km/h (0 Bft) SW 225 0 min 0,0 UV-I 5,4 C 7,5 C 0,0 km/h (0 Bft)
17.09.2012 03:00 7,2 C 21,2 C 9,1 C 7,5 C 7,5 C 0,3 C 88 % 90 % 0 % 1014,6 hPa 0,0 l/m 0,0 km/h (0 Bft) SW 225 0 min 0,0 UV-I 5,3 C 7,5 C 0,0 km/h (0 Bft)
17.09.2012 03:05 7,2 C 21,2 C 9,1 C 7,5 C 7,5 C 0,3 C 89 % 90 % 0 % 1014,6 hPa 0,0 l/m 0,0 km/h (0 Bft) SW 225 0 min 0,0 UV-I 5,5 C 7,5 C 0,0 km/h (0 Bft)
17.09.2012 03:10 7,2 C 21,2 C 9,0 C 7,5 C 7,5 C 0,3 C 89 % 90 % 0 % 1014,6 hPa 0,0 l/m 0,0 km/h (0 Bft) W-SW 247 0 min 0,0 UV-I 5,5 C 7,5 C 0,0 km/h (0 Bft)
17.09.2012 03:15 7,3 C 21,2 C 9,0 C 7,5 C 7,5 C 0,2 C 89 % 90 % 0 % 1014,6 hPa 0,0 l/m 0,0 km/h (0 Bft) W 270 0 min 0,0 UV-I 5,6 C 7,5 C 0,0 km/h (0 Bft)
17.09.2012 03:20 7,2 C 21,1 C 9,1 C 7,5 C 7,5 C 0,3 C 89 % 90 % 0 % 1014,3 hPa 0,0 l/m 0,0 km/h (0 Bft) W 270 0 min 0,0 UV-I 5,5 C 7,5 C 0,0 km/h (0 Bft)
17.09.2012 03:25 7,2 C 21,1 C 8,9 C 7,4 C 7,4 C 0,2 C 89 % 90 % 0 % 1014,3 hPa 0,0 l/m 0,0 km/h (0 Bft) W-SW 247 0 min 0,0 UV-I 5,5 C 7,4 C 0,0 km/h (0 Bft)
17.09.2012 03:30 7,2 C 21,1 C 8,8 C 7,3 C 7,3 C 0,1 C 89 % 90 % 0 % 1014,3 hPa 0,0 l/m 0,0 km/h (0 Bft) W 270 0 min 0,0 UV-I 5,5 C 7,3 C 0,0 km/h (0 Bft)
17.09.2012 03:35 7,1 C 21,1 C 8,8 C 7,3 C 7,3 C 0,2 C 89 % 90 % 0 % 1014,3 hPa 0,0 l/m 0,0 km/h (0 Bft) W 270 0 min 0,0 UV-I 5,4 C 7,3 C 0,0 km/h (0 Bft)
17.09.2012 03:40 7,1 C 21,1 C 8,8 C 7,3 C 7,3 C 0,2 C 89 % 90 % 0 % 1014,1 hPa 0,0 l/m 0,0 km/h (0 Bft) W 270 0 min 0,0 UV-I 5,4 C 7,3 C 0,0 km/h (0 Bft)
17.09.2012 03:45 7,3 C 21,1 C 8,8 C 7,5 C 7,5 C 0,2 C 89 % 90 % 0 % 1014,1 hPa 0,0 l/m 0,0 km/h (0 Bft) W 270 0 min 0,0 UV-I 5,6 C 7,5 C 0,0 km/h (0 Bft)
17.09.2012 03:50 7,3 C 21,1 C 8,8 C 7,6 C 7,6 C 0,3 C 90 % 90 % 0 % 1014,1 hPa 0,0 l/m 0,0 km/h (0 Bft) W 270 0 min 0,0 UV-I 5,8 C 7,6 C 0,0 km/h (0 Bft)
17.09.2012 03:55 7,4 C 21,1 C 8,7 C 7,6 C 7,6 C 0,2 C 90 % 90 % 0 % 1014,1 hPa 0,0 l/m 0,0 km/h (0 Bft) W 270 0 min 0,0 UV-I 5,9 C 7,6 C 0,0 km/h (0 Bft)
17.09.2012 04:00 7,4 C 21,1 C 8,8 C 7,7 C 7,7 C 0,3 C 90 % 90 % 0 % 1014,0 hPa 0,0 l/m 0,0 km/h (0 Bft) W 270 0 min 0,0 UV-I 5,9 C 7,7 C 0,0 km/h (0 Bft)
17.09.2012 04:05 7,3 C 21,1 C 8,9 C 7,8 C 7,8 C 0,5 C 90 % 91 % 0 % 1014,0 hPa 0,0 l/m 0,0 km/h (0 Bft) W 270 0 min 0,0 UV-I 5,8 C 7,8 C 0,0 km/h (0 Bft)
17.09.2012 04:10 7,3 C 21,1 C 8,8 C 7,7 C 7,7 C 0,4 C 90 % 90 % 0 % 1014,0 hPa 0,0 l/m 0,0 km/h (0 Bft) W 270 0 min 0,0 UV-I 5,8 C 7,7 C 0,0 km/h (0 Bft)
17.09.2012 04:15 7,3 C 21,1 C 8,8 C 7,8 C 7,8 C 0,5 C 90 % 90 % 0 % 1014,0 hPa 0,0 l/m 0,0 km/h (0 Bft) W 270 0 min 0,0 UV-I 5,8 C 7,8 C 0,0 km/h (0 Bft)
17.09.2012 04:20 7,3 C 21,1 C 8,8 C 7,9 C 7,9 C 0,6 C 90 % 90 % 0 % 1014,3 hPa 0,0 l/m 0,0 km/h (0 Bft) W 270 0 min 0,0 UV-I 5,8 C 7,9 C 0,0 km/h (0 Bft)
17.09.2012 04:25 7,3 C 21,0 C 8,8 C 7,9 C 7,9 C 0,6 C 90 % 91 % 0 % 1014,3 hPa 0,0 l/m 0,0 km/h (0 Bft) W 270 0 min 0,0 UV-I 5,8 C 7,9 C 0,0 km/h (0 Bft)
17.09.2012 04:30 7,5 C 21,1 C 8,9 C 8,0 C 8,0 C 0,5 C 90 % 91 % 0 % 1014,3 hPa 0,0 l/m 0,0 km/h (0 Bft) W 270 0 min 0,0 UV-I 6,0 C 8,0 C 0,0 km/h (0 Bft)
17.09.2012 04:35 7,5 C 21,1 C 8,9 C 8,0 C 8,0 C 0,5 C 90 % 91 % 0 % 1014,3 hPa 0,0 l/m 0,0 km/h (0 Bft) W 270 0 min 0,0 UV-I 6,0 C 8,0 C 0,0 km/h (0 Bft)
17.09.2012 04:40 7,5 C 21,0 C 8,9 C 8,0 C 8,0 C 0,5 C 90 % 91 % 0 % 1014,3 hPa 0,0 l/m 0,0 km/h (0 Bft) W-SW 247 0 min 0,0 UV-I 6,0 C 8,0 C 0,0 km/h (0 Bft)
17.09.2012 04:45 7,5 C 21,0 C 9,1 C 8,0 C 8,0 C 0,5 C 90 % 91 % 0 % 1014,3 hPa 0,0 l/m 0,0 km/h (0 Bft) W 270 0 min 0,0 UV-I 6,0 C 8,0 C 0,0 km/h (0 Bft)
17.09.2012 04:50 7,5 C 20,9 C 9,1 C 8,0 C 8,0 C 0,5 C 90 % 91 % 0 % 1014,3 hPa 0,0 l/m 0,0 km/h (0 Bft) W 270 0 min 0,0 UV-I 6,0 C 8,0 C 0,0 km/h (0 Bft)
17.09.2012 04:55 7,5 C 21,0 C 9,1 C 8,0 C 8,0 C 0,5 C 90 % 91 % 0 % 1014,3 hPa 0,0 l/m 0,0 km/h (0 Bft) W 270 0 min 0,0 UV-I 6,0 C 8,0 C 0,0 km/h (0 Bft)
17.09.2012 05:00 7,5 C 20,9 C 9,1 C 8,0 C 8,0 C 0,5 C 90 % 91 % 0 % 1014,2 hPa 0,0 l/m 0,0 km/h (0 Bft) W 270 0 min 0,0 UV-I 6,0 C 8,0 C 0,0 km/h (0 Bft)
17.09.2012 05:05 7,4 C 21,0 C 9,0 C 8,0 C 8,0 C 0,6 C 90 % 91 % 0 % 1014,2 hPa 0,0 l/m 0,0 km/h (0 Bft) W 270 0 min 0,0 UV-I 5,9 C 8,0 C 0,0 km/h (0 Bft)
17.09.2012 05:10 7,4 C 21,0 C 9,1 C 8,0 C 8,0 C 0,6 C 90 % 91 % 0 % 1014,2 hPa 0,0 l/m 0,0 km/h (0 Bft) W 270 0 min 0,0 UV-I 5,9 C 8,0 C 0,0 km/h (0 Bft)
17.09.2012 05:15 7,5 C 20,9 C 9,1 C 8,0 C 8,0 C 0,5 C 90 % 91 % 0 % 1014,2 hPa 0,0 l/m 0,0 km/h (0 Bft) W 270 0 min 0,0 UV-I 6,0 C 8,0 C 0,0 km/h (0 Bft)
17.09.2012 05:20 7,4 C 20,9 C 9,2 C 8,0 C 8,0 C 0,6 C 90 % 91 % 0 % 1013,8 hPa 0,0 l/m 0,0 km/h (0 Bft) W 270 0 min 0,0 UV-I 5,9 C 8,0 C 0,0 km/h (0 Bft)
17.09.2012 05:25 7,6 C 20,9 C 9,1 C 8,0 C 8,0 C 0,4 C 91 % 91 % 0 % 1013,8 hPa 0,0 l/m 0,0 km/h (0 Bft) W-SW 247 0 min 0,0 UV-I 6,2 C 8,0 C 0,0 km/h (0 Bft)
17.09.2012 05:30 7,6 C 20,9 C 9,2 C 8,0 C 8,0 C 0,4 C 91 % 91 % 0 % 1013,8 hPa 0,0 l/m 0,0 km/h (0 Bft) W-SW 247 0 min 0,0 UV-I 6,2 C 8,0 C 0,0 km/h (0 Bft)
17.09.2012 05:35 7,6 C 20,9 C 9,2 C 8,0 C 8,0 C 0,4 C 91 % 91 % 0 % 1013,8 hPa 0,0 l/m 0,0 km/h (0 Bft) W 270 0 min 0,0 UV-I 6,2 C 8,0 C 0,0 km/h (0 Bft)
17.09.2012 05:40 7,6 C 20,8 C 9,3 C 8,0 C 8,0 C 0,4 C 91 % 91 % 0 % 1014,2 hPa 0,0 l/m 0,0 km/h (0 Bft) W 270 0 min 0,0 UV-I 6,2 C 8,0 C 0,0 km/h (0 Bft)
17.09.2012 05:45 7,5 C 20,8 C 9,2 C 8,0 C 8,0 C 0,5 C 91 % 91 % 0 % 1014,2 hPa 0,0 l/m 0,0 km/h (0 Bft) S 180 0 min 0,0 UV-I 6,1 C 8,0 C 0,0 km/h (0 Bft)
17.09.2012 05:50 7,6 C 20,9 C 9,1 C 8,0 C 8,0 C 0,4 C 91 % 91 % 0 % 1014,2 hPa 0,0 l/m 0,0 km/h (0 Bft) NW 315 0 min 0,0 UV-I 6,2 C 8,0 C 0,0 km/h (0 Bft)
17.09.2012 05:55 7,6 C 20,8 C 9,1 C 8,1 C 8,1 C 0,5 C 91 % 91 % 0 % 1014,2 hPa 0,0 l/m 0,0 km/h (0 Bft) NW 315 0 min 0,0 UV-I 6,2 C 8,1 C 0,0 km/h (0 Bft)
17.09.2012 06:00 7,7 C 20,8 C 9,1 C 8,1 C 8,1 C 0,4 C 91 % 91 % 0 % 1014,0 hPa 0,0 l/m 0,0 km/h (0 Bft) NW 315 0 min 0,0 UV-I 6,3 C 8,1 C 0,0 km/h (0 Bft)
17.09.2012 06:05 7,7 C 20,8 C 9,1 C 8,0 C 8,0 C 0,3 C 91 % 91 % 0 % 1014,0 hPa 0,0 l/m 0,0 km/h (0 Bft) NW 315 0 min 0,0 UV-I 6,3 C 8,0 C 0,0 km/h (0 Bft)
17.09.2012 06:10 7,7 C 20,8 C 9,1 C 8,0 C 8,0 C 0,3 C 91 % 91 % 0 % 1014,0 hPa 0,0 l/m 0,0 km/h (0 Bft) N-NO 22 0 min 0,0 UV-I 6,3 C 8,0 C 0,0 km/h (0 Bft)
17.09.2012 06:15 7,8 C 20,8 C 9,1 C 8,1 C 8,1 C 0,3 C 91 % 91 % 0 % 1014,0 hPa 0,0 l/m 0,0 km/h (0 Bft) N-NO 22 0 min 0,0 UV-I 6,4 C 8,1 C 0,0 km/h (0 Bft)
17.09.2012 06:20 7,8 C 20,8 C 9,1 C 8,2 C 8,2 C 0,4 C 91 % 91 % 0 % 1013,9 hPa 0,0 l/m 0,0 km/h (0 Bft) N-NO 22 0 min 0,0 UV-I 6,4 C 8,2 C 0,0 km/h (0 Bft)
17.09.2012 06:25 7,7 C 20,8 C 9,1 C 8,1 C 8,1 C 0,4 C 91 % 91 % 0 % 1013,9 hPa 0,0 l/m 0,0 km/h (0 Bft) N-NO 22 0 min 0,0 UV-I 6,3 C 8,1 C 0,0 km/h (0 Bft)
17.09.2012 06:30 7,7 C 20,8 C 9,1 C 8,1 C 8,1 C 0,4 C 91 % 91 % 0 % 1013,9 hPa 0,0 l/m 0,0 km/h (0 Bft) NW 315 0 min 0,0 UV-I 6,3 C 8,1 C 0,0 km/h (0 Bft)
17.09.2012 06:35 7,7 C 20,8 C 9,1 C 8,0 C 8,0 C 0,3 C 91 % 91 % 0 % 1013,9 hPa 0,0 l/m 0,0 km/h (0 Bft) NW 315 0 min 0,0 UV-I 6,3 C 8,0 C 0,0 km/h (0 Bft)
17.09.2012 06:46 7,6 C 20,7 C 9,0 C 7,7 C 7,7 C 0,1 C 91 % 91 % 0 % 1013,9 hPa 0,0 l/m 0,0 km/h (0 Bft) N 0 0 min 0,0 UV-I 6,2 C 7,7 C 0,0 km/h (0 Bft)
17.09.2012 06:55 7,5 C 20,7 C 8,9 C 7,6 C 7,6 C 0,1 C 91 % 91 % 0 % 1013,9 hPa 0,0 l/m 0,0 km/h (0 Bft) W 270 0 min 0,0 UV-I 6,1 C 7,6 C 0,0 km/h (0 Bft)
17.09.2012 07:00 7,3 C 20,7 C 8,9 C 7,6 C 7,6 C 0,3 C 91 % 91 % 8 % 1014,2 hPa 0,0 l/m 0,0 km/h (0 Bft) W-NW 292 5 min 0,0 UV-I 5,9 C 7,6 C 0,0 km/h (0 Bft)
17.09.2012 07:05 7,4 C 20,7 C 8,9 C 7,7 C 7,7 C 0,3 C 91 % 91 % 8 % 1014,2 hPa 0,0 l/m 0,0 km/h (0 Bft) NW 315 0 min 0,0 UV-I 6,0 C 7,7 C 0,0 km/h (0 Bft)
17.09.2012 07:10 7,3 C 20,7 C 8,9 C 7,7 C 7,7 C 0,4 C 91 % 91 % 11 % 1014,2 hPa 0,0 l/m 0,0 km/h (0 Bft) NW 315 0 min 0,0 UV-I 5,9 C 7,7 C 0,0 km/h (0 Bft)
17.09.2012 07:15 7,4 C 20,7 C 8,9 C 8,0 C 8,0 C 0,6 C 91 % 91 % 16 % 1014,2 hPa 0,0 l/m 0,0 km/h (0 Bft) O-NO 67 5 min 0,0 UV-I 6,0 C 8,0 C 0,0 km/h (0 Bft)
17.09.2012 07:20 7,6 C 20,7 C 9,1 C 8,3 C 8,3 C 0,7 C 91 % 91 % 18 % 1014,1 hPa 0,0 l/m 0,0 km/h (0 Bft) O-NO 67 0 min 0,0 UV-I 6,2 C 8,3 C 0,0 km/h (0 Bft)
17.09.2012 07:25 7,7 C 20,7 C 9,2 C 9,2 C 9,2 C 1,5 C 91 % 91 % 39 % 1014,1 hPa 0,0 l/m 0,0 km/h (0 Bft) O-NO 67 5 min 0,0 UV-I 6,3 C 9,2 C 0,0 km/h (0 Bft)
17.09.2012 07:30 7,8 C 20,7 C 9,5 C 10,2 C 10,2 C 2,4 C 91 % 91 % 63 % 1014,1 hPa 0,0 l/m 0,0 km/h (0 Bft) O-NO 67 5 min 0,0 UV-I 6,4 C 10,2 C 0,0 km/h (0 Bft)
17.09.2012 07:35 8,4 C 20,7 C 9,5 C 11,3 C 11,3 C 2,9 C 92 % 91 % 76 % 1014,1 hPa 0,0 l/m 0,0 km/h (0 Bft) O-NO 67 5 min 0,0 UV-I 7,2 C 11,3 C 0,0 km/h (0 Bft)
17.09.2012 07:40 8,9 C 20,7 C 9,7 C 11,7 C 11,7 C 2,8 C 92 % 91 % 74 % 1014,2 hPa 0,0 l/m 0,0 km/h (0 Bft) O-NO 67 5 min 0,0 UV-I 7,7 C 11,7 C 0,0 km/h (0 Bft)
17.09.2012 07:45 9,2 C 20,7 C 9,7 C 11,7 C 11,7 C 2,5 C 92 % 91 % 66 % 1014,2 hPa 0,0 l/m 0,0 km/h (0 Bft) O-NO 67 5 min 0,0 UV-I 8,0 C 11,7 C 0,0 km/h (0 Bft)
17.09.2012 07:50 9,3 C 20,7 C 9,8 C 11,7 C 11,7 C 2,4 C 92 % 91 % 63 % 1014,2 hPa 0,0 l/m 0,0 km/h (0 Bft) O-NO 67 5 min 0,0 UV-I 8,1 C 11,7 C 0,0 km/h (0 Bft)
17.09.2012 07:55 9,2 C 20,6 C 10,0 C 13,0 C 13,0 C 3,8 C 92 % 91 % 100 % 1014,2 hPa 0,0 l/m 0,0 km/h (0 Bft) W-SW 247 5 min 0,0 UV-I 8,0 C 13,0 C 0,0 km/h (0 Bft)
17.09.2012 08:00 9,1 C 20,6 C 10,1 C 13,3 C 13,3 C 4,2 C 92 % 91 % 100 % 1014,4 hPa 0,0 l/m 0,0 km/h (0 Bft) SW 225 5 min 0,0 UV-I 7,9 C 13,3 C 1,8 km/h (1 Bft)
17.09.2012 08:05 8,9 C 20,5 C 10,0 C 12,6 C 12,6 C 3,7 C 92 % 91 % 97 % 1014,4 hPa 0,0 l/m 0,0 km/h (0 Bft) W-SW 247 5 min 0,0 UV-I 7,7 C 12,6 C 0,0 km/h (0 Bft)
17.09.2012 08:10 8,9 C 20,5 C 10,0 C 12,3 C 12,3 C 3,4 C 92 % 91 % 89 % 1014,4 hPa 0,0 l/m 0,0 km/h (0 Bft) W-SW 247 5 min 0,0 UV-I 7,7 C 12,3 C 0,0 km/h (0 Bft)
17.09.2012 08:15 9,0 C 20,5 C 10,1 C 12,6 C 12,6 C 3,6 C 92 % 91 % 95 % 1014,4 hPa 0,0 l/m 0,0 km/h (0 Bft) W-SW 247 5 min 0,0 UV-I 7,8 C 12,6 C 0,0 km/h (0 Bft)
17.09.2012 08:20 9,1 C 20,5 C 10,3 C 13,1 C 13,1 C 4,0 C 92 % 91 % 100 % 1014,4 hPa 0,0 l/m 0,0 km/h (0 Bft) W-SW 247 5 min 0,0 UV-I 7,9 C 13,1 C 0,0 km/h (0 Bft)
17.09.2012 08:25 9,5 C 20,5 C 10,4 C 13,7 C 13,7 C 4,2 C 92 % 91 % 100 % 1014,4 hPa 0,0 l/m 0,0 km/h (0 Bft) SW 225 5 min 0,0 UV-I 8,3 C 13,7 C 0,0 km/h (0 Bft)
17.09.2012 08:30 9,5 C 20,5 C 10,6 C 14,4 C 14,4 C 4,9 C 92 % 91 % 100 % 1014,4 hPa 0,0 l/m 0,0 km/h (0 Bft) W 270 5 min 0,0 UV-I 8,3 C 14,4 C 0,0 km/h (0 Bft)
17.09.2012 08:35 9,6 C 20,5 C 10,8 C 14,9 C 14,9 C 5,3 C 92 % 91 % 100 % 1014,4 hPa 0,0 l/m 0,2 km/h (0 Bft) W-SW 247 5 min 0,0 UV-I 8,4 C 14,9 C 0,0 km/h (0 Bft)
17.09.2012 08:40 9,6 C 20,4 C 11,0 C 15,4 C 15,4 C 5,8 C 92 % 91 % 100 % 1014,4 hPa 0,0 l/m 0,3 km/h (0 Bft) SW 225 5 min 0,0 UV-I 8,4 C 15,4 C 0,0 km/h (0 Bft)
17.09.2012 08:45 9,9 C 20,4 C 11,2 C 15,4 C 15,4 C 5,5 C 92 % 91 % 100 % 1014,4 hPa 0,0 l/m 0,2 km/h (0 Bft) W-SW 247 5 min 0,0 UV-I 8,7 C 15,4 C 1,9 km/h (1 Bft)
17.09.2012 08:50 10,0 C 20,4 C 11,3 C 15,2 C 15,2 C 5,2 C 92 % 91 % 100 % 1014,4 hPa 0,0 l/m 0,0 km/h (0 Bft) W-SW 247 5 min 0,0 UV-I 8,8 C 15,2 C 0,0 km/h (0 Bft)
17.09.2012 08:55 10,2 C 20,4 C 11,6 C 15,0 C 15,0 C 4,8 C 92 % 91 % 100 % 1014,4 hPa 0,0 l/m 0,0 km/h (0 Bft) W 270 5 min 0,1 UV-I 9,0 C 15,0 C 0,0 km/h (0 Bft)
17.09.2012 09:00 10,4 C 20,3 C 11,7 C 15,2 C 15,2 C 4,8 C 92 % 91 % 100 % 1014,2 hPa 0,0 l/m 0,0 km/h (0 Bft) S 180 5 min 0,1 UV-I 9,2 C 15,2 C 0,0 km/h (0 Bft)
17.09.2012 09:05 10,8 C 20,3 C 12,0 C 15,6 C 15,6 C 4,8 C 92 % 91 % 100 % 1014,2 hPa 0,0 l/m 0,0 km/h (0 Bft) S 180 5 min 0,1 UV-I 9,6 C 15,6 C 0,0 km/h (0 Bft)
17.09.2012 09:10 11,1 C 20,3 C 12,4 C 15,9 C 15,9 C 4,8 C 93 % 91 % 100 % 1014,2 hPa 0,0 l/m 0,0 km/h (0 Bft) NO 45 5 min 0,2 UV-I 10,0 C 15,9 C 0,0 km/h (0 Bft)
17.09.2012 09:15 11,5 C 20,1 C 12,7 C 16,5 C 16,5 C 5,0 C 93 % 90 % 100 % 1014,2 hPa 0,0 l/m 0,0 km/h (0 Bft) SW 225 5 min 0,2 UV-I 10,4 C 16,5 C 0,0 km/h (0 Bft)
17.09.2012 09:20 11,9 C 20,1 C 13,0 C 17,0 C 17,0 C 5,1 C 93 % 91 % 100 % 1014,4 hPa 0,0 l/m 0,0 km/h (0 Bft) SO 135 5 min 0,3 UV-I 10,8 C 17,0 C 0,0 km/h (0 Bft)
17.09.2012 09:25 12,2 C 20,1 C 13,3 C 17,4 C 17,4 C 5,2 C 93 % 90 % 100 % 1014,4 hPa 0,0 l/m 0,0 km/h (0 Bft) W 270 5 min 0,3 UV-I 11,1 C 17,4 C 2,9 km/h (1 Bft)
17.09.2012 09:30 12,5 C 20,2 C 13,5 C 17,8 C 17,8 C 5,3 C 93 % 90 % 100 % 1014,4 hPa 0,0 l/m 0,2 km/h (0 Bft) S 180 5 min 0,3 UV-I 11,4 C 17,8 C 1,8 km/h (1 Bft)
17.09.2012 09:35 12,8 C 20,2 C 13,8 C 18,1 C 18,1 C 5,3 C 93 % 89 % 100 % 1014,4 hPa 0,0 l/m 0,2 km/h (0 Bft) O-NO 67 5 min 0,3 UV-I 11,7 C 18,1 C 0,0 km/h (0 Bft)
17.09.2012 09:40 13,2 C 20,1 C 14,0 C 18,3 C 18,3 C 5,1 C 92 % 89 % 100 % 1013,8 hPa 0,0 l/m 0,0 km/h (0 Bft) SO 135 5 min 0,4 UV-I 11,9 C 18,3 C 0,0 km/h (0 Bft)
17.09.2012 09:45 13,6 C 20,1 C 14,2 C 18,4 C 18,4 C 4,8 C 91 % 88 % 100 % 1013,8 hPa 0,0 l/m 0,0 km/h (0 Bft) NW 315 5 min 0,4 UV-I 12,2 C 18,4 C 0,0 km/h (0 Bft)
17.09.2012 09:50 13,9 C 20,1 C 14,5 C 18,5 C 18,5 C 4,6 C 91 % 88 % 100 % 1013,8 hPa 0,0 l/m 0,0 km/h (0 Bft) W-SW 247 5 min 0,4 UV-I 12,5 C 18,5 C 1,6 km/h (1 Bft)
17.09.2012 09:55 14,3 C 20,2 C 14,5 C 18,7 C 18,7 C 4,4 C 89 % 87 % 100 % 1013,8 hPa 0,0 l/m 0,2 km/h (0 Bft) W-SW 247 5 min 0,5 UV-I 12,5 C 18,7 C 0,0 km/h (0 Bft)
17.09.2012 10:00 14,4 C 20,1 C 14,7 C 18,7 C 18,7 C 4,3 C 88 % 87 % 100 % 1014,6 hPa 0,0 l/m 0,3 km/h (0 Bft) W 270 5 min 0,5 UV-I 12,4 C 18,7 C 0,0 km/h (0 Bft)
17.09.2012 10:05 14,8 C 20,1 C 14,8 C 19,0 C 19,0 C 4,2 C 87 % 87 % 100 % 1014,6 hPa 0,0 l/m 0,3 km/h (0 Bft) NW 315 5 min 0,6 UV-I 12,7 C 19,0 C 0,0 km/h (0 Bft)
17.09.2012 10:10 15,0 C 20,1 C 15,0 C 19,0 C 19,0 C 4,0 C 85 % 86 % 100 % 1014,6 hPa 0,0 l/m 0,8 km/h (0 Bft) S-SW 202 5 min 0,7 UV-I 12,5 C 19,0 C 2,7 km/h (1 Bft)
17.09.2012 10:15 15,5 C 20,1 C 15,2 C 19,0 C 19,0 C 3,5 C 82 % 86 % 92 % 1014,6 hPa 0,0 l/m 2,1 km/h (1 Bft) W-NW 292 5 min 0,7 UV-I 12,4 C 19,0 C 7,1 km/h (2 Bft)
17.09.2012 10:20 15,9 C 20,0 C 15,4 C 19,0 C 19,0 C 3,1 C 79 % 85 % 82 % 1014,5 hPa 0,0 l/m 2,6 km/h (1 Bft) S-SO 157 0 min 0,8 UV-I 12,3 C 19,0 C 2,9 km/h (1 Bft)
17.09.2012 10:25 16,2 C 20,1 C 15,6 C 19,1 C 19,1 C 2,9 C 77 % 84 % 76 % 1014,5 hPa 0,0 l/m 2,3 km/h (1 Bft) NW 315 0 min 0,8 UV-I 12,2 C 19,1 C 2,9 km/h (1 Bft)
17.09.2012 10:30 16,5 C 20,1 C 15,7 C 19,1 C 19,1 C 2,6 C 76 % 84 % 68 % 1014,5 hPa 0,0 l/m 2,3 km/h (1 Bft) W-NW 292 0 min 0,9 UV-I 12,3 C 19,1 C 4,7 km/h (1 Bft)
17.09.2012 10:35 16,6 C 20,1 C 15,8 C 19,2 C 19,2 C 2,6 C 76 % 83 % 68 % 1014,5 hPa 0,0 l/m 1,6 km/h (1 Bft) SW 225 0 min 0,9 UV-I 12,3 C 19,2 C 2,1 km/h (1 Bft)
17.09.2012 10:40 16,8 C 20,1 C 16,0 C 19,3 C 19,3 C 2,5 C 76 % 83 % 66 % 1014,9 hPa 0,0 l/m 0,8 km/h (0 Bft) O-SO 112 0 min 1,0 UV-I 12,5 C 19,3 C 0,0 km/h (0 Bft)
17.09.2012 10:45 17,1 C 20,1 C 16,1 C 19,5 C 19,5 C 2,4 C 75 % 83 % 63 % 1014,9 hPa 0,0 l/m 1,3 km/h (1 Bft) W-SW 247 0 min 1,1 UV-I 12,6 C 19,5 C 1,9 km/h (1 Bft)
17.09.2012 10:50 17,3 C 20,1 C 16,3 C 19,5 C 19,5 C 2,2 C 73 % 82 % 58 % 1014,9 hPa 0,0 l/m 1,4 km/h (1 Bft) SW 225 0 min 1,2 UV-I 12,4 C 19,5 C 4,2 km/h (1 Bft)
17.09.2012 10:55 17,5 C 20,1 C 16,3 C 19,7 C 19,7 C 2,2 C 73 % 82 % 58 % 1014,9 hPa 0,0 l/m 1,3 km/h (1 Bft) N 360 0 min 1,3 UV-I 12,6 C 19,7 C 0,0 km/h (0 Bft)
17.09.2012 11:00 17,5 C 20,1 C 16,4 C 19,8 C 19,8 C 2,3 C 73 % 82 % 61 % 1014,9 hPa 0,0 l/m 1,1 km/h (1 Bft) SW 225 0 min 1,3 UV-I 12,6 C 19,8 C 2,1 km/h (1 Bft)
17.09.2012 11:05 17,7 C 20,1 C 16,5 C 19,9 C 19,9 C 2,2 C 72 % 81 % 58 % 1014,9 hPa 0,0 l/m 1,1 km/h (1 Bft) O-NO 67 0 min 1,3 UV-I 12,6 C 19,9 C 2,6 km/h (1 Bft)
17.09.2012 11:10 17,8 C 20,1 C 16,6 C 19,9 C 19,9 C 2,1 C 71 % 81 % 55 % 1014,9 hPa 0,0 l/m 1,4 km/h (1 Bft) S-SW 202 0 min 1,3 UV-I 12,5 C 19,9 C 0,0 km/h (0 Bft)
17.09.2012 11:15 17,8 C 20,1 C 16,7 C 19,7 C 19,7 C 1,9 C 71 % 80 % 50 % 1014,9 hPa 0,0 l/m 2,7 km/h (1 Bft) SW 225 0 min 1,3 UV-I 12,5 C 19,7 C 10,9 km/h (2 Bft)
17.09.2012 11:20 17,9 C 20,1 C 16,8 C 19,7 C 19,7 C 1,8 C 71 % 80 % 47 % 1015,0 hPa 0,0 l/m 1,9 km/h (1 Bft) W 270 0 min 1,4 UV-I 12,6 C 19,7 C 0,0 km/h (0 Bft)
17.09.2012 11:25 18,1 C 20,2 C 16,8 C 19,9 C 19,9 C 1,8 C 70 % 80 % 47 % 1015,0 hPa 0,0 l/m 1,6 km/h (1 Bft) SW 225 0 min 1,4 UV-I 12,5 C 19,9 C 6,1 km/h (2 Bft)
17.09.2012 11:30 18,0 C 20,1 C 16,7 C 19,9 C 19,9 C 1,9 C 70 % 80 % 50 % 1015,0 hPa 0,0 l/m 3,1 km/h (1 Bft) S 180 0 min 1,5 UV-I 12,4 C 19,9 C 8,9 km/h (2 Bft)
17.09.2012 11:35 18,1 C 20,2 C 16,8 C 20,0 C 20,0 C 1,9 C 71 % 80 % 50 % 1015,0 hPa 0,0 l/m 3,1 km/h (1 Bft) SW 225 0 min 1,5 UV-I 12,8 C 20,0 C 0,0 km/h (0 Bft)
17.09.2012 11:40 18,2 C 20,2 C 16,9 C 20,0 C 20,0 C 1,8 C 70 % 80 % 47 % 1015,1 hPa 0,0 l/m 3,2 km/h (1 Bft) S-SO 157 0 min 1,6 UV-I 12,6 C 20,0 C 6,4 km/h (2 Bft)
17.09.2012 11:45 18,4 C 20,1 C 17,1 C 20,1 C 20,1 C 1,7 C 70 % 80 % 45 % 1015,1 hPa 0,0 l/m 4,0 km/h (1 Bft) S 180 0 min 1,7 UV-I 12,8 C 20,1 C 11,7 km/h (2 Bft)
17.09.2012 11:50 18,5 C 20,1 C 17,3 C 20,2 C 20,2 C 1,7 C 70 % 79 % 45 % 1015,1 hPa 0,0 l/m 3,4 km/h (1 Bft) W-SW 247 0 min 1,7 UV-I 12,9 C 20,2 C 8,0 km/h (2 Bft)
17.09.2012 11:55 18,7 C 20,1 C 17,7 C 20,5 C 20,5 C 1,8 C 69 % 79 % 47 % 1015,1 hPa 0,0 l/m 2,3 km/h (1 Bft) W-SW 247 0 min 1,7 UV-I 12,9 C 20,5 C 4,0 km/h (1 Bft)
17.09.2012 12:00 18,7 C 20,1 C 18,3 C 20,7 C 20,7 C 2,0 C 69 % 78 % 53 % 1014,9 hPa 0,0 l/m 2,4 km/h (1 Bft) O-SO 112 0 min 1,8 UV-I 12,9 C 20,7 C 4,5 km/h (1 Bft)
17.09.2012 12:05 18,8 C 20,1 C 18,4 C 20,9 C 20,9 C 2,1 C 69 % 76 % 55 % 1014,9 hPa 0,0 l/m 1,4 km/h (1 Bft) N-NW 337 0 min 1,8 UV-I 13,0 C 20,9 C 1,9 km/h (1 Bft)
17.09.2012 12:10 19,1 C 20,1 C 18,5 C 21,1 C 21,1 C 2,0 C 69 % 76 % 53 % 1014,9 hPa 0,0 l/m 1,1 km/h (1 Bft) SW 225 0 min 1,8 UV-I 13,3 C 21,1 C 5,6 km/h (1 Bft)
17.09.2012 12:15 19,2 C 20,2 C 18,5 C 21,4 C 21,4 C 2,2 C 69 % 76 % 58 % 1014,9 hPa 0,0 l/m 2,4 km/h (1 Bft) SW 225 0 min 1,8 UV-I 13,4 C 21,4 C 10,3 km/h (2 Bft)
17.09.2012 12:20 19,2 C 20,2 C 18,5 C 21,6 C 21,6 C 2,4 C 68 % 75 % 63 % 1014,9 hPa 0,0 l/m 3,2 km/h (1 Bft) W-SW 247 0 min 2,0 UV-I 13,1 C 21,6 C 5,5 km/h (1 Bft)
17.09.2012 12:25 19,5 C 20,2 C 18,6 C 22,7 C 22,7 C 3,2 C 68 % 75 % 84 % 1014,9 hPa 0,0 l/m 3,2 km/h (1 Bft) SW 225 0 min 2,1 UV-I 13,4 C 22,7 C 3,2 km/h (1 Bft)
17.09.2012 12:30 19,6 C 20,2 C 18,7 C 23,2 C 23,2 C 3,6 C 66 % 75 % 95 % 1014,9 hPa 0,0 l/m 2,9 km/h (1 Bft) W 270 5 min 2,0 UV-I 13,1 C 23,2 C 10,5 km/h (2 Bft)
17.09.2012 12:35 19,9 C 20,2 C 19,3 C 23,8 C 23,8 C 3,9 C 66 % 75 % 100 % 1014,9 hPa 0,0 l/m 2,7 km/h (1 Bft) SW 225 5 min 2,2 UV-I 13,4 C 23,8 C 0,0 km/h (0 Bft)
17.09.2012 12:46 20,4 C 20,2 C 19,4 C 24,4 C 24,4 C 4,0 C 65 % 73 % 100 % 1014,8 hPa 0,0 l/m 3,1 km/h (1 Bft) N 0 11 min 2,8 UV-I 13,6 C 24,4 C 4,2 km/h (1 Bft)
17.09.2012 12:55 20,8 C 20,3 C 19,7 C 24,6 C 24,6 C 3,8 C 63 % 72 % 100 % 1014,8 hPa 0,0 l/m 4,0 km/h (1 Bft) S-SW 202 9 min 3,0 UV-I 13,5 C 24,6 C 6,1 km/h (2 Bft)
17.09.2012 13:00 20,9 C 20,3 C 19,6 C 25,0 C 25,0 C 4,1 C 63 % 72 % 100 % 1014,6 hPa 0,0 l/m 3,9 km/h (1 Bft) SW 225 5 min 3,2 UV-I 13,6 C 25,0 C 4,5 km/h (1 Bft)
17.09.2012 13:05 20,9 C 20,3 C 19,4 C 25,3 C 25,3 C 4,4 C 61 % 72 % 100 % 1014,6 hPa 0,0 l/m 3,7 km/h (1 Bft) W-SW 247 5 min 3,1 UV-I 13,1 C 25,3 C 4,0 km/h (1 Bft)
17.09.2012 13:10 20,9 C 20,3 C 19,3 C 25,0 C 25,0 C 4,1 C 61 % 71 % 100 % 1014,6 hPa 0,0 l/m 4,0 km/h (1 Bft) W 270 5 min 2,9 UV-I 13,1 C 25,0 C 10,1 km/h (2 Bft)
17.09.2012 13:15 21,1 C 20,3 C 19,2 C 24,8 C 24,8 C 3,7 C 61 % 72 % 97 % 1014,6 hPa 0,0 l/m 3,5 km/h (1 Bft) W-NW 292 5 min 2,8 UV-I 13,3 C 24,8 C 3,2 km/h (1 Bft)
17.09.2012 13:20 21,2 C 20,4 C 19,5 C 24,9 C 24,9 C 3,7 C 60 % 71 % 97 % 1014,8 hPa 0,0 l/m 3,5 km/h (1 Bft) W 270 5 min 2,6 UV-I 13,1 C 24,9 C 0,0 km/h (0 Bft)
17.09.2012 13:25 21,2 C 20,4 C 19,5 C 24,8 C 24,8 C 3,6 C 61 % 72 % 95 % 1014,8 hPa 0,0 l/m 3,1 km/h (1 Bft) SW 225 5 min 2,6 UV-I 13,4 C 24,8 C 4,7 km/h (1 Bft)
17.09.2012 13:30 21,2 C 20,4 C 19,5 C 24,6 C 24,6 C 3,4 C 60 % 71 % 89 % 1014,8 hPa 0,0 l/m 3,2 km/h (1 Bft) W 270 5 min 2,5 UV-I 13,1 C 24,6 C 6,1 km/h (2 Bft)
17.09.2012 13:35 21,2 C 20,4 C 19,4 C 24,3 C 24,3 C 3,1 C 60 % 71 % 82 % 1014,8 hPa 0,0 l/m 3,9 km/h (1 Bft) SW 225 0 min 2,5 UV-I 13,1 C 24,3 C 0,0 km/h (0 Bft)
17.09.2012 13:40 21,2 C 20,4 C 19,5 C 24,1 C 24,1 C 2,9 C 60 % 72 % 76 % 1014,8 hPa 0,0 l/m 3,1 km/h (1 Bft) S-SW 202 0 min 2,2 UV-I 13,1 C 24,1 C 7,7 km/h (2 Bft)
17.09.2012 13:45 21,2 C 20,3 C 19,6 C 24,3 C 24,3 C 3,1 C 60 % 71 % 82 % 1014,8 hPa 0,0 l/m 2,1 km/h (1 Bft) W 270 0 min 2,3 UV-I 13,1 C 24,3 C 6,1 km/h (2 Bft)
17.09.2012 13:50 21,2 C 20,4 C 19,9 C 24,6 C 24,6 C 3,4 C 60 % 71 % 89 % 1014,8 hPa 0,0 l/m 3,2 km/h (1 Bft) O-NO 67 5 min 2,2 UV-I 13,1 C 24,6 C 1,8 km/h (1 Bft)
17.09.2012 13:55 21,3 C 20,4 C 19,9 C 25,1 C 25,1 C 3,8 C 61 % 70 % 100 % 1014,8 hPa 0,0 l/m 2,7 km/h (1 Bft) W-SW 247 5 min 2,1 UV-I 13,5 C 25,1 C 2,3 km/h (1 Bft)
17.09.2012 14:00 21,4 C 20,4 C 19,8 C 24,9 C 24,9 C 3,5 C 60 % 70 % 92 % 1014,8 hPa 0,0 l/m 2,1 km/h (1 Bft) N-NW 337 5 min 1,9 UV-I 13,3 C 24,9 C 4,7 km/h (1 Bft)
17.09.2012 14:05 21,5 C 20,4 C 19,9 C 25,0 C 25,0 C 3,5 C 60 % 71 % 92 % 1014,8 hPa 0,0 l/m 3,1 km/h (1 Bft) W 270 5 min 2,1 UV-I 13,4 C 25,0 C 3,1 km/h (1 Bft)
17.09.2012 14:10 21,6 C 20,4 C 20,0 C 25,4 C 25,4 C 3,8 C 61 % 70 % 100 % 1014,8 hPa 0,0 l/m 2,1 km/h (1 Bft) SW 225 5 min 2,2 UV-I 13,7 C 25,4 C 2,9 km/h (1 Bft)
17.09.2012 14:15 21,7 C 20,4 C 20,1 C 25,5 C 25,5 C 3,8 C 60 % 70 % 100 % 1014,8 hPa 0,0 l/m 2,4 km/h (1 Bft) W-SW 247 5 min 2,0 UV-I 13,6 C 25,5 C 2,9 km/h (1 Bft)
17.09.2012 14:20 21,7 C 20,5 C 20,0 C 25,3 C 25,3 C 3,6 C 60 % 70 % 95 % 1014,6 hPa 0,0 l/m 2,4 km/h (1 Bft) SO 135 5 min 1,9 UV-I 13,6 C 25,3 C 0,0 km/h (0 Bft)
17.09.2012 14:25 21,9 C 20,5 C 20,0 C 25,3 C 25,3 C 3,4 C 60 % 70 % 89 % 1014,6 hPa 0,0 l/m 1,8 km/h (1 Bft) SW 225 5 min 2,0 UV-I 13,8 C 25,3 C 3,2 km/h (1 Bft)
17.09.2012 14:30 21,9 C 20,5 C 20,1 C 25,4 C 25,4 C 3,5 C 60 % 70 % 92 % 1014,6 hPa 0,0 l/m 1,9 km/h (1 Bft) W-SW 247 5 min 1,9 UV-I 13,8 C 25,4 C 0,0 km/h (0 Bft)
17.09.2012 14:35 22,0 C 20,5 C 20,3 C 25,8 C 25,8 C 3,8 C 60 % 70 % 100 % 1014,6 hPa 0,0 l/m 1,9 km/h (1 Bft) SW 225 5 min 2,0 UV-I 13,9 C 25,8 C 1,8 km/h (1 Bft)
17.09.2012 14:40 22,0 C 20,5 C 20,3 C 26,0 C 26,0 C 4,0 C 60 % 70 % 100 % 1014,4 hPa 0,0 l/m 1,6 km/h (1 Bft) SO 135 5 min 2,2 UV-I 13,9 C 26,0 C 4,2 km/h (1 Bft)
17.09.2012 14:45 22,1 C 20,6 C 20,4 C 26,3 C 26,3 C 4,2 C 59 % 70 % 100 % 1014,4 hPa 0,0 l/m 1,3 km/h (1 Bft) O-SO 112 5 min 2,2 UV-I 13,7 C 26,3 C 0,0 km/h (0 Bft)
17.09.2012 14:50 22,2 C 20,6 C 20,5 C 26,7 C 26,7 C 4,5 C 59 % 70 % 100 % 1014,4 hPa 0,0 l/m 1,8 km/h (1 Bft) O-NO 67 5 min 2,2 UV-I 13,8 C 26,7 C 1,6 km/h (1 Bft)
17.09.2012 14:55 22,4 C 20,6 C 20,7 C 26,9 C 26,9 C 4,5 C 57 % 69 % 100 % 1014,4 hPa 0,0 l/m 3,4 km/h (1 Bft) SW 225 5 min 2,2 UV-I 13,5 C 26,9 C 4,0 km/h (1 Bft)
17.09.2012 15:00 22,3 C 20,7 C 20,6 C 26,6 C 26,6 C 4,3 C 57 % 69 % 100 % 1014,5 hPa 0,0 l/m 4,5 km/h (1 Bft) SW 225 5 min 2,3 UV-I 13,4 C 26,6 C 3,9 km/h (1 Bft)
17.09.2012 15:05 22,3 C 20,7 C 20,7 C 26,5 C 26,5 C 4,2 C 57 % 68 % 100 % 1014,5 hPa 0,0 l/m 3,5 km/h (1 Bft) W 270 5 min 2,1 UV-I 13,4 C 26,5 C 4,8 km/h (1 Bft)
17.09.2012 15:10 22,5 C 20,7 C 20,8 C 26,7 C 26,7 C 4,2 C 57 % 69 % 100 % 1014,5 hPa 0,0 l/m 2,7 km/h (1 Bft) SW 225 5 min 2,1 UV-I 13,5 C 26,7 C 2,7 km/h (1 Bft)
17.09.2012 15:15 22,7 C 20,7 C 21,0 C 26,8 C 26,8 C 4,1 C 57 % 68 % 100 % 1014,5 hPa 0,0 l/m 3,9 km/h (1 Bft) S 180 5 min 1,9 UV-I 13,7 C 26,8 C 3,4 km/h (1 Bft)
17.09.2012 15:20 23,0 C 20,7 C 21,1 C 26,8 C 26,8 C 3,8 C 56 % 67 % 100 % 1015,0 hPa 0,0 l/m 3,5 km/h (1 Bft) O-NO 67 5 min 1,9 UV-I 13,7 C 26,8 C 3,4 km/h (1 Bft)
17.09.2012 15:25 23,5 C 20,8 C 21,0 C 27,3 C 27,3 C 3,8 C 55 % 67 % 100 % 1015,0 hPa 0,0 l/m 1,9 km/h (1 Bft) S-SO 157 5 min 1,7 UV-I 13,9 C 27,3 C 2,3 km/h (1 Bft)
17.09.2012 15:30 23,5 C 20,8 C 21,0 C 27,3 C 27,3 C 3,8 C 55 % 67 % 100 % 1015,0 hPa 0,0 l/m 1,8 km/h (1 Bft) W-SW 247 5 min 1,6 UV-I 13,9 C 27,3 C 6,1 km/h (2 Bft)
17.09.2012 15:35 23,4 C 20,8 C 21,1 C 27,1 C 27,1 C 3,7 C 54 % 67 % 97 % 1015,0 hPa 0,0 l/m 2,9 km/h (1 Bft) SW 225 5 min 1,6 UV-I 13,6 C 27,1 C 3,1 km/h (1 Bft)
17.09.2012 15:39 23,4 C 20,8 C 20,9 C 26,4 C 26,4 C 3,0 C 54 % 67 % 79 % 1014,4 hPa 0,0 l/m 3,4 km/h (1 Bft) S-SW 202 0 min 1,4 UV-I 13,6 C 26,4 C 3,7 km/h (1 Bft)
17.09.2012 15:42 23,4 C 20,8 C 20,9 C 26,4 C 26,4 C 3,0 C 54 % 67 % 79 % 1014,4 hPa 0,0 l/m 3,4 km/h (1 Bft) S-SW 202 0 min 1,4 UV-I 13,6 C 26,4 C 3,7 km/h (1 Bft)
17.09.2012 15:45 23,7 C 20,8 C 21,0 C 26,6 C 26,6 C 2,9 C 54 % 67 % 76 % 1014,4 hPa 0,0 l/m 2,9 km/h (1 Bft) S-SO 157 0 min 1,4 UV-I 13,8 C 26,6 C 3,9 km/h (1 Bft)
17.09.2012 15:50 23,7 C 20,8 C 21,1 C 26,6 C 26,6 C 2,9 C 53 % 66 % 76 % 1014,4 hPa 0,0 l/m 3,1 km/h (1 Bft) W-SW 247 0 min 1,3 UV-I 13,5 C 26,6 C 2,7 km/h (1 Bft)
17.09.2012 15:55 23,7 C 20,9 C 21,1 C 26,2 C 26,2 C 2,5 C 53 % 67 % 66 % 1014,4 hPa 0,0 l/m 3,2 km/h (1 Bft) W-SW 247 0 min 1,2 UV-I 13,5 C 26,2 C 8,0 km/h (2 Bft)
17.09.2012 16:00 23,9 C 20,9 C 21,1 C 26,5 C 26,5 C 2,6 C 54 % 67 % 68 % 1014,2 hPa 0,0 l/m 2,6 km/h (1 Bft) O-SO 112 0 min 1,2 UV-I 14,0 C 26,5 C 0,0 km/h (0 Bft)
17.09.2012 16:05 23,8 C 20,9 C 21,3 C 27,4 C 27,4 C 3,6 C 53 % 65 % 95 % 1014,2 hPa 0,0 l/m 1,0 km/h (0 Bft) S-SO 157 5 min 1,1 UV-I 13,6 C 27,4 C 0,0 km/h (0 Bft)
17.09.2012 16:10 24,0 C 20,9 C 21,2 C 27,6 C 27,6 C 3,6 C 54 % 65 % 95 % 1014,2 hPa 0,0 l/m 0,8 km/h (0 Bft) W 270 5 min 1,0 UV-I 14,1 C 27,6 C 4,8 km/h (1 Bft)
17.09.2012 16:15 24,2 C 20,9 C 21,2 C 27,3 C 27,3 C 3,1 C 53 % 66 % 82 % 1014,2 hPa 0,0 l/m 2,7 km/h (1 Bft) SW 225 0 min 0,9 UV-I 14,0 C 27,3 C 9,0 km/h (2 Bft)
17.09.2012 16:20 24,3 C 21,0 C 21,2 C 27,0 C 27,0 C 2,7 C 53 % 66 % 71 % 1014,2 hPa 0,0 l/m 3,2 km/h (1 Bft) O-NO 67 0 min 0,9 UV-I 14,1 C 27,0 C 0,0 km/h (0 Bft)
17.09.2012 16:25 24,2 C 21,0 C 21,1 C 26,2 C 26,2 C 2,0 C 53 % 66 % 53 % 1014,2 hPa 0,0 l/m 2,1 km/h (1 Bft) W-NW 292 0 min 0,8 UV-I 14,0 C 26,2 C 2,9 km/h (1 Bft)
17.09.2012 16:30 24,0 C 21,0 C 20,9 C 25,6 C 25,6 C 1,6 C 54 % 66 % 42 % 1014,2 hPa 0,0 l/m 1,1 km/h (1 Bft) W-SW 247 0 min 0,7 UV-I 14,1 C 25,6 C 0,0 km/h (0 Bft)
17.09.2012 16:35 23,7 C 21,0 C 20,8 C 25,3 C 25,3 C 1,6 C 53 % 66 % 42 % 1014,2 hPa 0,0 l/m 2,1 km/h (1 Bft) SW 225 0 min 0,6 UV-I 13,5 C 25,3 C 3,7 km/h (1 Bft)
17.09.2012 16:40 23,6 C 21,0 C 20,9 C 25,3 C 25,3 C 1,7 C 53 % 67 % 45 % 1014,2 hPa 0,0 l/m 3,2 km/h (1 Bft) SW 225 0 min 0,6 UV-I 13,4 C 25,3 C 6,8 km/h (2 Bft)
17.09.2012 16:45 23,3 C 21,0 C 20,9 C 25,1 C 25,1 C 1,8 C 53 % 66 % 47 % 1014,2 hPa 0,0 l/m 4,3 km/h (1 Bft) W-SW 247 0 min 0,6 UV-I 13,2 C 25,1 C 6,1 km/h (2 Bft)
17.09.2012 16:50 23,1 C 21,1 C 21,1 C 25,5 C 25,5 C 2,4 C 54 % 67 % 63 % 1014,2 hPa 0,0 l/m 4,5 km/h (1 Bft) W-SW 247 0 min 0,5 UV-I 13,3 C 25,5 C 4,0 km/h (1 Bft)
17.09.2012 16:55 23,0 C 21,1 C 21,1 C 25,8 C 25,8 C 2,8 C 55 % 66 % 74 % 1014,2 hPa 0,0 l/m 3,7 km/h (1 Bft) O-SO 112 0 min 0,4 UV-I 13,5 C 25,8 C 2,7 km/h (1 Bft)
17.09.2012 17:00 22,8 C 21,1 C 21,1 C 25,8 C 25,8 C 3,0 C 55 % 67 % 79 % 1014,2 hPa 0,0 l/m 2,3 km/h (1 Bft) NW 315 0 min 0,4 UV-I 13,3 C 25,8 C 3,2 km/h (1 Bft)
17.09.2012 17:05 22,7 C 21,1 C 20,9 C 25,8 C 25,8 C 3,1 C 55 % 66 % 82 % 1014,2 hPa 0,0 l/m 0,5 km/h (0 Bft) O-SO 112 0 min 0,3 UV-I 13,2 C 25,8 C 0,0 km/h (0 Bft)
17.09.2012 17:10 22,6 C 21,1 C 21,0 C 26,0 C 26,0 C 3,4 C 55 % 66 % 89 % 1014,2 hPa 0,0 l/m 0,3 km/h (0 Bft) O 90 5 min 0,3 UV-I 13,1 C 26,0 C 0,0 km/h (0 Bft)
17.09.2012 17:15 22,4 C 21,2 C 21,3 C 26,9 C 26,9 C 4,5 C 56 % 65 % 100 % 1014,2 hPa 0,0 l/m 0,3 km/h (0 Bft) S-SO 157 5 min 0,2 UV-I 13,2 C 26,9 C 0,0 km/h (0 Bft)
17.09.2012 17:20 22,4 C 21,2 C 21,2 C 27,1 C 27,1 C 4,7 C 56 % 65 % 100 % 1014,2 hPa 0,0 l/m 0,3 km/h (0 Bft) S 180 5 min 0,2 UV-I 13,2 C 27,1 C 0,0 km/h (0 Bft)
17.09.2012 17:25 22,3 C 21,2 C 21,3 C 27,1 C 27,1 C 4,8 C 56 % 65 % 100 % 1014,2 hPa 0,0 l/m 0,8 km/h (0 Bft) NW 315 5 min 0,2 UV-I 13,1 C 27,1 C 0,0 km/h (0 Bft)
17.09.2012 17:30 22,3 C 21,2 C 21,2 C 27,1 C 27,1 C 4,8 C 56 % 65 % 100 % 1014,2 hPa 0,0 l/m 0,8 km/h (0 Bft) SW 225 5 min 0,1 UV-I 13,1 C 27,1 C 0,0 km/h (0 Bft)
17.09.2012 17:35 22,3 C 21,2 C 21,1 C 26,7 C 26,7 C 4,4 C 56 % 65 % 100 % 1014,2 hPa 0,0 l/m 1,9 km/h (1 Bft) W-SW 247 5 min 0,1 UV-I 13,1 C 26,7 C 3,9 km/h (1 Bft)
17.09.2012 17:40 22,3 C 21,2 C 21,1 C 26,2 C 26,2 C 3,9 C 56 % 65 % 100 % 1014,4 hPa 0,0 l/m 2,9 km/h (1 Bft) SW 225 5 min 0,0 UV-I 13,1 C 26,2 C 3,1 km/h (1 Bft)
17.09.2012 17:45 22,3 C 21,2 C 21,0 C 25,9 C 25,9 C 3,6 C 56 % 66 % 95 % 1014,4 hPa 0,0 l/m 2,4 km/h (1 Bft) S 180 5 min 0,0 UV-I 13,1 C 25,9 C 4,3 km/h (1 Bft)
17.09.2012 17:50 22,3 C 21,2 C 20,9 C 26,1 C 26,1 C 3,8 C 56 % 66 % 100 % 1014,4 hPa 0,0 l/m 1,3 km/h (1 Bft) SW 225 5 min 0,0 UV-I 13,1 C 26,1 C 2,4 km/h (1 Bft)
17.09.2012 17:55 22,3 C 21,2 C 20,9 C 25,9 C 25,9 C 3,6 C 55 % 66 % 95 % 1014,4 hPa 0,0 l/m 2,4 km/h (1 Bft) SW 225 5 min 0,0 UV-I 12,8 C 25,9 C 4,2 km/h (1 Bft)
17.09.2012 18:00 22,2 C 21,2 C 20,8 C 25,5 C 25,5 C 3,3 C 56 % 66 % 87 % 1014,4 hPa 0,0 l/m 3,2 km/h (1 Bft) S 180 5 min 0,0 UV-I 13,0 C 25,5 C 3,9 km/h (1 Bft)
17.09.2012 18:05 22,0 C 21,3 C 20,8 C 25,0 C 25,0 C 3,0 C 56 % 66 % 79 % 1014,4 hPa 0,0 l/m 2,9 km/h (1 Bft) SW 225 5 min 0,0 UV-I 12,8 C 25,0 C 3,1 km/h (1 Bft)
17.09.2012 18:10 22,0 C 21,3 C 20,7 C 24,7 C 24,7 C 2,7 C 57 % 66 % 71 % 1014,4 hPa 0,0 l/m 2,3 km/h (1 Bft) W-SW 247 5 min 0,0 UV-I 13,1 C 24,7 C 0,0 km/h (0 Bft)
17.09.2012 18:15 21,9 C 21,3 C 20,5 C 24,5 C 24,5 C 2,6 C 57 % 67 % 68 % 1014,4 hPa 0,0 l/m 1,3 km/h (1 Bft) SW 225 5 min 0,0 UV-I 13,0 C 24,5 C 2,3 km/h (1 Bft)
17.09.2012 18:20 21,9 C 21,3 C 20,3 C 24,4 C 24,4 C 2,5 C 57 % 68 % 66 % 1014,6 hPa 0,0 l/m 1,1 km/h (1 Bft) W-NW 292 5 min 0,0 UV-I 13,0 C 24,4 C 0,0 km/h (0 Bft)
17.09.2012 18:25 21,9 C 21,3 C 20,1 C 24,1 C 24,1 C 2,2 C 57 % 68 % 58 % 1014,6 hPa 0,0 l/m 1,4 km/h (1 Bft) SW 225 5 min 0,0 UV-I 13,0 C 24,1 C 2,4 km/h (1 Bft)
17.09.2012 18:30 21,7 C 21,3 C 20,0 C 23,7 C 23,7 C 2,0 C 58 % 69 % 53 % 1014,6 hPa 0,0 l/m 1,1 km/h (1 Bft) W 270 5 min 0,0 UV-I 13,1 C 23,7 C 0,0 km/h (0 Bft)
17.09.2012 18:35 21,5 C 21,4 C 19,6 C 23,2 C 23,2 C 1,7 C 59 % 69 % 45 % 1014,6 hPa 0,0 l/m 0,8 km/h (0 Bft) W 270 5 min 0,0 UV-I 13,1 C 23,2 C 0,0 km/h (0 Bft)
17.09.2012 18:41 21,5 C 21,4 C 19,5 C 22,6 C 22,6 C 1,1 C 59 % 70 % 29 % 1015,0 hPa 0,0 l/m 0,5 km/h (0 Bft) N 0 6 min 0,0 UV-I 13,1 C 22,6 C 0,0 km/h (0 Bft)
17.09.2012 18:55 20,3 C 21,5 C 18,7 C 20,7 C 20,7 C 0,4 C 62 % 72 % 11 % 1015,0 hPa 0,0 l/m 0,0 km/h (0 Bft) O-NO 67 0 min 0,0 UV-I 12,8 C 20,7 C 0,0 km/h (0 Bft)
17.09.2012 19:00 20,0 C 21,5 C 18,5 C 20,0 C 20,0 C 0,0 C 63 % 73 % 0 % 1014,4 hPa 0,0 l/m 0,0 km/h (0 Bft) O-NO 67 0 min 0,0 UV-I 12,7 C 20,0 C 0,0 km/h (0 Bft)
17.09.2012 19:05 19,6 C 21,5 C 18,0 C 19,4 C 19,0 C 0,0 C 64 % 74 % 0 % 1014,4 hPa 0,0 l/m 0,0 km/h (0 Bft) O-NO 67 0 min 0,0 UV-I 12,6 C 19,0 C 0,0 km/h (0 Bft)
17.09.2012 19:10 19,3 C 21,5 C 17,9 C 19,1 C 18,6 C 0,0 C 65 % 75 % 0 % 1014,4 hPa 0,0 l/m 0,0 km/h (0 Bft) O-NO 67 0 min 0,0 UV-I 12,6 C 18,6 C 0,0 km/h (0 Bft)
17.09.2012 19:15 19,0 C 21,6 C 17,5 C 18,6 C 17,9 C 0,0 C 67 % 76 % 0 % 1014,4 hPa 0,0 l/m 0,0 km/h (0 Bft) O-NO 67 0 min 0,0 UV-I 12,7 C 17,9 C 0,0 km/h (0 Bft)
17.09.2012 19:20 18,7 C 21,6 C 17,3 C 18,4 C 17,7 C 0,0 C 67 % 76 % 0 % 1014,4 hPa 0,0 l/m 0,0 km/h (0 Bft) O-NO 67 0 min 0,0 UV-I 12,4 C 17,7 C 0,0 km/h (0 Bft)
17.09.2012 19:25 18,4 C 21,6 C 17,1 C 18,0 C 17,1 C 0,0 C 68 % 77 % 0 % 1014,4 hPa 0,0 l/m 0,0 km/h (0 Bft) O-NO 67 0 min 0,0 UV-I 12,4 C 17,1 C 0,0 km/h (0 Bft)
17.09.2012 19:30 18,1 C 21,7 C 16,8 C 17,7 C 16,9 C 0,0 C 69 % 78 % 0 % 1014,4 hPa 0,0 l/m 0,0 km/h (0 Bft) O 90 0 min 0,0 UV-I 12,3 C 16,9 C 0,0 km/h (0 Bft)
17.09.2012 19:35 17,9 C 21,7 C 16,7 C 17,4 C 16,5 C 0,0 C 70 % 78 % 0 % 1014,4 hPa 0,0 l/m 0,0 km/h (0 Bft) SW 225 0 min 0,0 UV-I 12,3 C 16,5 C 0,0 km/h (0 Bft)
17.09.2012 19:40 17,7 C 21,7 C 16,6 C 17,2 C 16,1 C 0,0 C 71 % 79 % 0 % 1014,6 hPa 0,0 l/m 0,0 km/h (0 Bft) SW 225 0 min 0,0 UV-I 12,4 C 16,1 C 0,0 km/h (0 Bft)
17.09.2012 19:45 17,4 C 21,8 C 16,3 C 16,8 C 15,7 C 0,0 C 72 % 79 % 0 % 1014,6 hPa 0,0 l/m 0,0 km/h (0 Bft) O 90 0 min 0,0 UV-I 12,3 C 15,7 C 0,0 km/h (0 Bft)
17.09.2012 19:50 17,1 C 21,8 C 16,1 C 16,6 C 15,5 C 0,0 C 72 % 80 % 0 % 1014,6 hPa 0,0 l/m 0,0 km/h (0 Bft) O 90 0 min 0,0 UV-I 12,0 C 15,5 C 0,0 km/h (0 Bft)
17.09.2012 19:55 16,7 C 21,8 C 15,9 C 16,2 C 15,3 C 0,0 C 74 % 81 % 0 % 1014,6 hPa 0,0 l/m 0,0 km/h (0 Bft) O-NO 67 0 min 0,0 UV-I 12,0 C 15,3 C 0,0 km/h (0 Bft)
17.09.2012 20:00 16,6 C 21,8 C 15,8 C 16,1 C 15,2 C 0,0 C 74 % 81 % 0 % 1014,6 hPa 0,0 l/m 0,0 km/h (0 Bft) O-SO 112 0 min 0,0 UV-I 11,9 C 15,2 C 0,0 km/h (0 Bft)
17.09.2012 20:05 16,3 C 21,8 C 15,7 C 15,8 C 14,9 C 0,0 C 74 % 81 % 0 % 1014,6 hPa 0,0 l/m 0,0 km/h (0 Bft) W-SW 247 0 min 0,0 UV-I 11,7 C 14,9 C 0,0 km/h (0 Bft)
17.09.2012 20:10 16,2 C 21,8 C 15,6 C 15,6 C 14,5 C 0,0 C 75 % 81 % 0 % 1014,6 hPa 0,0 l/m 0,0 km/h (0 Bft) SW 225 0 min 0,0 UV-I 11,8 C 14,5 C 0,0 km/h (0 Bft)
17.09.2012 20:15 16,0 C 21,9 C 15,5 C 15,4 C 14,3 C 0,0 C 77 % 82 % 0 % 1014,6 hPa 0,0 l/m 0,0 km/h (0 Bft) N-NO 22 0 min 0,0 UV-I 12,0 C 14,3 C 0,0 km/h (0 Bft)
17.09.2012 20:20 15,8 C 21,8 C 15,2 C 15,2 C 14,0 C 0,0 C 77 % 82 % 0 % 1014,7 hPa 0,0 l/m 0,0 km/h (0 Bft) O 90 0 min 0,0 UV-I 11,8 C 14,0 C 0,0 km/h (0 Bft)
17.09.2012 20:25 15,5 C 21,8 C 15,1 C 15,0 C 13,9 C 0,0 C 78 % 83 % 0 % 1014,7 hPa 0,0 l/m 0,0 km/h (0 Bft) W-SW 247 0 min 0,0 UV-I 11,7 C 13,9 C 0,0 km/h (0 Bft)
17.09.2012 20:30 15,3 C 21,9 C 15,0 C 14,8 C 13,7 C 0,0 C 78 % 83 % 0 % 1014,7 hPa 0,0 l/m 0,0 km/h (0 Bft) W-SW 247 0 min 0,0 UV-I 11,5 C 13,7 C 0,0 km/h (0 Bft)
17.09.2012 20:35 15,1 C 21,9 C 14,9 C 14,6 C 13,5 C 0,0 C 78 % 84 % 0 % 1014,7 hPa 0,0 l/m 0,0 km/h (0 Bft) SW 225 0 min 0,0 UV-I 11,3 C 13,5 C 0,0 km/h (0 Bft)
17.09.2012 20:40 14,8 C 22,0 C 14,8 C 14,3 C 13,4 C 0,0 C 79 % 84 % 0 % 1015,0 hPa 0,0 l/m 0,0 km/h (0 Bft) W-SW 247 0 min 0,0 UV-I 11,2 C 13,4 C 0,0 km/h (0 Bft)
17.09.2012 20:45 14,5 C 22,0 C 14,7 C 14,1 C 13,2 C 0,0 C 79 % 83 % 0 % 1015,0 hPa 0,0 l/m 0,0 km/h (0 Bft) NW 315 0 min 0,0 UV-I 10,9 C 13,2 C 0,0 km/h (0 Bft)
17.09.2012 20:50 14,3 C 22,0 C 14,5 C 13,9 C 13,2 C 0,0 C 79 % 84 % 0 % 1015,0 hPa 0,0 l/m 0,0 km/h (0 Bft) W-SW 247 0 min 0,0 UV-I 10,7 C 13,2 C 0,0 km/h (0 Bft)
17.09.2012 20:55 14,0 C 22,0 C 14,5 C 13,7 C 13,0 C 0,0 C 80 % 85 % 0 % 1015,0 hPa 0,0 l/m 0,0 km/h (0 Bft) NW 315 0 min 0,0 UV-I 10,6 C 13,0 C 0,0 km/h (0 Bft)
17.09.2012 21:00 13,8 C 22,1 C 14,4 C 13,5 C 12,9 C 0,0 C 80 % 85 % 0 % 1014,6 hPa 0,0 l/m 0,0 km/h (0 Bft) NW 315 0 min 0,0 UV-I 10,4 C 12,9 C 0,0 km/h (0 Bft)
17.09.2012 21:05 13,7 C 22,1 C 14,1 C 13,4 C 12,9 C 0,0 C 81 % 85 % 0 % 1014,6 hPa 0,0 l/m 0,0 km/h (0 Bft) NW 315 0 min 0,0 UV-I 10,5 C 12,9 C 0,0 km/h (0 Bft)
17.09.2012 21:10 13,5 C 22,1 C 14,0 C 13,3 C 12,9 C 0,0 C 81 % 85 % 0 % 1014,6 hPa 0,0 l/m 0,0 km/h (0 Bft) NW 315 0 min 0,0 UV-I 10,3 C 12,9 C 0,0 km/h (0 Bft)
17.09.2012 21:15 13,3 C 22,1 C 14,0 C 13,2 C 12,9 C 0,0 C 82 % 86 % 0 % 1014,6 hPa 0,0 l/m 0,0 km/h (0 Bft) NW 315 0 min 0,0 UV-I 10,3 C 12,9 C 0,0 km/h (0 Bft)
17.09.2012 21:20 13,2 C 22,1 C 13,9 C 13,1 C 12,8 C 0,0 C 82 % 86 % 0 % 1014,9 hPa 0,0 l/m 0,0 km/h (0 Bft) NW 315 0 min 0,0 UV-I 10,2 C 12,8 C 0,0 km/h (0 Bft)
17.09.2012 21:25 13,1 C 22,1 C 13,8 C 12,9 C 12,6 C 0,0 C 82 % 86 % 0 % 1014,9 hPa 0,0 l/m 0,0 km/h (0 Bft) O-NO 67 0 min 0,0 UV-I 10,1 C 12,6 C 0,0 km/h (0 Bft)
17.09.2012 21:30 12,9 C 22,1 C 13,9 C 12,8 C 12,6 C 0,0 C 83 % 86 % 0 % 1014,9 hPa 0,0 l/m 0,0 km/h (0 Bft) O-NO 67 0 min 0,0 UV-I 10,1 C 12,6 C 0,0 km/h (0 Bft)
17.09.2012 21:35 12,8 C 22,1 C 13,7 C 12,7 C 12,5 C 0,0 C 83 % 86 % 0 % 1014,9 hPa 0,0 l/m 0,0 km/h (0 Bft) O 90 0 min 0,0 UV-I 10,0 C 12,5 C 0,0 km/h (0 Bft)
17.09.2012 21:40 12,7 C 22,0 C 13,6 C 12,6 C 12,4 C 0,0 C 83 % 86 % 0 % 1014,6 hPa 0,0 l/m 0,0 km/h (0 Bft) SW 225 0 min 0,0 UV-I 9,9 C 12,4 C 0,0 km/h (0 Bft)
17.09.2012 21:45 12,5 C 22,1 C 13,4 C 12,4 C 12,2 C 0,0 C 83 % 86 % 0 % 1014,6 hPa 0,0 l/m 0,0 km/h (0 Bft) SW 225 0 min 0,0 UV-I 9,7 C 12,2 C 0,0 km/h (0 Bft)
17.09.2012 21:50 12,4 C 22,1 C 13,5 C 12,3 C 12,1 C 0,0 C 84 % 87 % 0 % 1014,6 hPa 0,0 l/m 0,0 km/h (0 Bft) NO 45 0 min 0,0 UV-I 9,8 C 12,1 C 0,0 km/h (0 Bft)
17.09.2012 21:55 12,4 C 22,0 C 13,3 C 12,3 C 12,0 C 0,0 C 84 % 87 % 0 % 1014,6 hPa 0,0 l/m 0,0 km/h (0 Bft) NW 315 0 min 0,0 UV-I 9,8 C 12,0 C 0,0 km/h (0 Bft)
17.09.2012 22:00 12,3 C 22,1 C 13,2 C 12,2 C 12,0 C 0,0 C 84 % 87 % 0 % 1014,8 hPa 0,0 l/m 0,0 km/h (0 Bft) N 360 0 min 0,0 UV-I 9,7 C 12,0 C 0,0 km/h (0 Bft)
17.09.2012 22:05 12,3 C 22,1 C 13,3 C 12,2 C 12,0 C 0,0 C 84 % 87 % 0 % 1014,8 hPa 0,0 l/m 0,0 km/h (0 Bft) NO 45 0 min 0,0 UV-I 9,7 C 12,0 C 0,0 km/h (0 Bft)
17.09.2012 22:10 12,1 C 22,1 C 13,1 C 12,1 C 12,0 C 0,0 C 85 % 87 % 0 % 1014,8 hPa 0,0 l/m 0,0 km/h (0 Bft) NO 45 0 min 0,0 UV-I 9,7 C 12,0 C 0,0 km/h (0 Bft)
17.09.2012 22:15 12,1 C 22,1 C 13,0 C 12,1 C 12,0 C 0,0 C 85 % 87 % 0 % 1014,8 hPa 0,0 l/m 0,0 km/h (0 Bft) NO 45 0 min 0,0 UV-I 9,7 C 12,0 C 0,0 km/h (0 Bft)
17.09.2012 22:20 12,0 C 22,1 C 13,1 C 12,0 C 11,9 C 0,0 C 85 % 88 % 0 % 1014,9 hPa 0,0 l/m 0,0 km/h (0 Bft) NO 45 0 min 0,0 UV-I 9,6 C 11,9 C 0,0 km/h (0 Bft)
17.09.2012 22:25 12,0 C 22,1 C 12,9 C 11,9 C 11,8 C 0,0 C 85 % 88 % 0 % 1014,9 hPa 0,0 l/m 0,0 km/h (0 Bft) W 270 0 min 0,0 UV-I 9,6 C 11,8 C 0,0 km/h (0 Bft)
17.09.2012 22:30 11,8 C 22,1 C 12,8 C 11,7 C 11,6 C 0,0 C 85 % 88 % 0 % 1014,9 hPa 0,0 l/m 0,0 km/h (0 Bft) W-NW 292 0 min 0,0 UV-I 9,4 C 11,6 C 0,0 km/h (0 Bft)
17.09.2012 22:35 11,7 C 22,0 C 12,8 C 11,6 C 11,5 C 0,0 C 85 % 88 % 0 % 1014,9 hPa 0,0 l/m 0,0 km/h (0 Bft) NW 315 0 min 0,0 UV-I 9,3 C 11,5 C 0,0 km/h (0 Bft)
17.09.2012 22:40 11,6 C 22,0 C 12,7 C 11,5 C 11,4 C 0,0 C 85 % 88 % 0 % 1014,6 hPa 0,0 l/m 0,0 km/h (0 Bft) NW 315 0 min 0,0 UV-I 9,2 C 11,4 C 0,0 km/h (0 Bft)
17.09.2012 22:45 11,5 C 22,1 C 12,7 C 11,5 C 11,4 C 0,0 C 85 % 88 % 0 % 1014,6 hPa 0,0 l/m 0,0 km/h (0 Bft) N-NO 22 0 min 0,0 UV-I 9,1 C 11,4 C 0,0 km/h (0 Bft)
17.09.2012 22:50 11,4 C 22,1 C 12,6 C 11,4 C 11,3 C 0,0 C 86 % 88 % 0 % 1014,6 hPa 0,0 l/m 0,0 km/h (0 Bft) N-NO 22 0 min 0,0 UV-I 9,1 C 11,3 C 0,0 km/h (0 Bft)
17.09.2012 22:55 11,3 C 22,0 C 12,4 C 11,3 C 11,3 C 0,0 C 86 % 88 % 0 % 1014,6 hPa 0,0 l/m 0,0 km/h (0 Bft) N-NO 22 0 min 0,0 UV-I 9,0 C 11,3 C 0,0 km/h (0 Bft)
17.09.2012 23:00 11,3 C 22,0 C 12,5 C 11,3 C 11,3 C 0,0 C 86 % 88 % 0 % 1014,7 hPa 0,0 l/m 0,0 km/h (0 Bft) N-NO 22 0 min 0,0 UV-I 9,0 C 11,3 C 0,0 km/h (0 Bft)
17.09.2012 23:05 11,2 C 22,0 C 12,5 C 11,2 C 11,2 C 0,0 C 86 % 89 % 0 % 1014,7 hPa 0,0 l/m 0,0 km/h (0 Bft) N-NO 22 0 min 0,0 UV-I 8,9 C 11,2 C 0,0 km/h (0 Bft)
17.09.2012 23:10 11,2 C 22,0 C 12,4 C 11,2 C 11,1 C 0,0 C 86 % 89 % 0 % 1014,7 hPa 0,0 l/m 0,0 km/h (0 Bft) N-NO 22 0 min 0,0 UV-I 8,9 C 11,1 C 0,0 km/h (0 Bft)
17.09.2012 23:15 11,1 C 22,0 C 12,3 C 11,1 C 11,1 C 0,0 C 86 % 89 % 0 % 1014,7 hPa 0,0 l/m 0,0 km/h (0 Bft) N-NO 22 0 min 0,0 UV-I 8,8 C 11,1 C 0,0 km/h (0 Bft)
17.09.2012 23:20 11,1 C 22,0 C 12,2 C 11,1 C 11,1 C 0,0 C 87 % 89 % 0 % 1014,8 hPa 0,0 l/m 0,0 km/h (0 Bft) N-NO 22 0 min 0,0 UV-I 9,0 C 11,1 C 0,0 km/h (0 Bft)
17.09.2012 23:25 11,1 C 22,0 C 12,3 C 11,2 C 11,2 C 0,1 C 87 % 89 % 0 % 1014,8 hPa 0,0 l/m 0,0 km/h (0 Bft) N-NO 22 0 min 0,0 UV-I 9,0 C 11,2 C 0,0 km/h (0 Bft)
17.09.2012 23:30 11,1 C 22,0 C 12,2 C 11,1 C 11,1 C 0,0 C 87 % 89 % 0 % 1014,8 hPa 0,0 l/m 0,0 km/h (0 Bft) N-NO 22 0 min 0,0 UV-I 9,0 C 11,1 C 0,0 km/h (0 Bft)
17.09.2012 23:35 11,1 C 22,0 C 12,1 C 11,0 C 10,9 C 0,0 C 87 % 89 % 0 % 1014,8 hPa 0,0 l/m 0,0 km/h (0 Bft) N-NO 22 0 min 0,0 UV-I 9,0 C 10,9 C 0,0 km/h (0 Bft)
17.09.2012 23:40 10,9 C 22,0 C 12,0 C 10,9 C 10,8 C 0,0 C 87 % 89 % 0 % 1014,6 hPa 0,0 l/m 0,0 km/h (0 Bft) N-NO 22 0 min 0,0 UV-I 8,8 C 10,8 C 0,0 km/h (0 Bft)
17.09.2012 23:45 10,8 C 22,0 C 11,9 C 10,8 C 10,8 C 0,0 C 87 % 89 % 0 % 1014,6 hPa 0,0 l/m 0,0 km/h (0 Bft) N-NO 22 0 min 0,0 UV-I 8,7 C 10,8 C 0,0 km/h (0 Bft)
17.09.2012 23:50 10,8 C 21,9 C 11,9 C 10,8 C 10,7 C 0,0 C 87 % 89 % 0 % 1014,6 hPa 0,0 l/m 0,0 km/h (0 Bft) N-NO 22 0 min 0,0 UV-I 8,7 C 10,7 C 0,0 km/h (0 Bft)
17.09.2012 23:55 10,7 C 22,0 C 11,9 C 10,7 C 10,6 C 0,0 C 87 % 89 % 0 % 1014,6 hPa 0,0 l/m 0,0 km/h (0 Bft) N-NO 22 0 min 0,0 UV-I 8,6 C 10,6 C 0,0 km/h (0 Bft)
_ Min-Zeit 03:35 10:20 03:55 03:30 03:30 00:00 15:50 16:05 00:00 05:20 - 00:00 - - - 00:00 03:00 03:30 00:00
Minimum _ 7,1 C 20,0 C 8,7 C 7,3 C 7,3 C 0,0 C 53 % 65 % 0 % 1013,8 hPa - 0,0 km/h (0 Bft) - - - 0,0 UV-I 5,3 C 7,3 C 0,0 km/h (0 Bft)
_ Max-Zeit 16:20 21:00 16:05 16:10 16:10 08:40 09:10 04:05 07:55 00:41 00:00 15:00 - - 12:46 13:00 16:10 16:10 11:45
Maximum _ 24,3 C 22,1 C 21,3 C 27,6 C 27,6 C 5,8 C 93 % 91 % 100 % 1015,1 hPa 0,0 l/m 4,5 km/h
SW (1 Bft)
- - 11 min 3,2 UV-I 14,1 C 27,6 C 11,7 km/h
S (2 Bft)
Durchschnitt _ 14,2 C 21,0 C 14,3 C 15,9 C 15,8 C 1,7 C 77 % 82 % 39 % 1014,5 hPa #0,0 l/m 0,9 km/h (0 Bft) SW - #7:46 h 1,4 UV-I 10,0 C 15,8 C 1,3 km/h (1 Bft)
2012 www.wetterstation-wechselburg.de